createdAt,value
2017-08-01T00:00:33.106Z,24.4
2017-08-01T00:01:41.196Z,24.4
2017-08-01T00:02:49.286Z,24.5
2017-08-01T00:03:57.375Z,24.5
2017-08-01T00:05:05.464Z,24.3
2017-08-01T00:06:13.553Z,24.4
2017-08-01T00:07:21.642Z,24.5
2017-08-01T00:08:29.732Z,24.5
2017-08-01T00:09:37.821Z,24.4
2017-08-01T00:10:45.910Z,24.4
2017-08-01T00:11:53.999Z,24.5
2017-08-01T00:13:02.088Z,24.5
2017-08-01T00:14:10.181Z,24.5
2017-08-01T00:15:18.268Z,24.4
2017-08-01T00:16:26.358Z,24.4
2017-08-01T00:17:34.448Z,24.4
2017-08-01T00:18:42.536Z,24.4
2017-08-01T00:19:50.624Z,24.5
2017-08-01T00:20:58.712Z,24.3
2017-08-01T00:22:06.803Z,24.3
2017-08-01T00:23:14.891Z,24.4
2017-08-01T00:24:22.981Z,24.4
2017-08-01T00:25:31.070Z,24.3
2017-08-01T00:26:39.160Z,24.4
2017-08-01T00:27:47.250Z,24.4
2017-08-01T00:28:55.339Z,24.4
2017-08-01T00:30:03.426Z,24.5
2017-08-01T00:31:11.513Z,24.4
2017-08-01T00:32:19.609Z,24.3
2017-08-01T00:33:27.693Z,24.4
2017-08-01T00:34:35.782Z,24.4
2017-08-01T00:35:43.892Z,24.4
2017-08-01T00:36:51.961Z,24.4
2017-08-01T00:38:00.049Z,24.4
2017-08-01T00:39:08.136Z,24.4
2017-08-01T00:40:16.225Z,24.4
2017-08-01T00:41:24.317Z,24.4
2017-08-01T00:42:32.407Z,24.4
2017-08-01T00:43:40.494Z,24.4
2017-08-01T00:44:48.585Z,24.4
2017-08-01T00:45:56.672Z,24.4
2017-08-01T00:47:04.761Z,24.4
2017-08-01T00:48:12.851Z,24.4
2017-08-01T00:49:20.941Z,24.4
2017-08-01T00:50:29.030Z,24.4
2017-08-01T00:51:37.124Z,24.4
2017-08-01T00:52:45.210Z,24.3
2017-08-01T00:53:53.298Z,24.3
2017-08-01T00:55:01.381Z,24.3
2017-08-01T00:56:09.477Z,24.3
2017-08-01T00:57:17.566Z,24.3
2017-08-01T00:58:25.656Z,24.3
2017-08-01T00:59:33.742Z,24.3
2017-08-01T01:00:41.832Z,24.3
2017-08-01T01:01:49.921Z,24.4
2017-08-01T01:02:58.012Z,24.3
2017-08-01T01:04:06.114Z,24.3
2017-08-01T01:05:14.215Z,24.4
2017-08-01T01:06:22.280Z,24.3
2017-08-01T01:07:30.370Z,24.4
2017-08-01T01:08:38.456Z,24.3
2017-08-01T01:09:46.670Z,24.3
2017-08-01T01:10:54.631Z,24.3
2017-08-01T01:12:02.722Z,24.2
2017-08-01T01:13:10.817Z,24.3
2017-08-01T01:14:18.901Z,24.3
2017-08-01T01:15:26.992Z,24.3
2017-08-01T01:16:35.081Z,24.3
2017-08-01T01:17:43.170Z,24.3
2017-08-01T01:18:51.256Z,24.3
2017-08-01T01:19:59.345Z,24.4
2017-08-01T01:21:07.436Z,24.3
2017-08-01T01:22:15.525Z,24.2
2017-08-01T01:23:23.614Z,24.3
2017-08-01T01:24:31.703Z,24.3
2017-08-01T01:25:39.792Z,24.3
2017-08-01T01:26:47.885Z,24.3
2017-08-01T01:27:55.972Z,24.2
2017-08-01T01:29:04.060Z,24.2
2017-08-01T01:30:12.151Z,24.3
2017-08-01T01:31:20.241Z,24.2
2017-08-01T01:32:28.330Z,24.2
2017-08-01T01:33:36.419Z,24.2
2017-08-01T01:34:44.507Z,24.2
2017-08-01T01:35:52.598Z,24.2
2017-08-01T01:37:00.689Z,24.3
2017-08-01T01:38:08.774Z,24.3
2017-08-01T01:39:16.860Z,24.2
2017-08-01T01:40:24.974Z,24.2
2017-08-01T01:41:33.042Z,24.3
2017-08-01T01:42:41.131Z,24.3
2017-08-01T01:43:49.220Z,24.2
2017-08-01T01:44:57.334Z,24.3
2017-08-01T01:46:05.424Z,24.2
2017-08-01T01:47:13.489Z,24.2
2017-08-01T01:48:21.578Z,24.3
2017-08-01T01:49:29.667Z,24.2
2017-08-01T01:50:37.756Z,24.2
2017-08-01T01:51:45.845Z,24.2
2017-08-01T01:52:53.935Z,24.2
2017-08-01T01:54:02.024Z,24.2
2017-08-01T01:55:10.112Z,24.3
2017-08-01T01:56:18.203Z,24.2
2017-08-01T01:57:26.290Z,24.2
2017-08-01T01:58:34.390Z,24.2
2017-08-01T01:59:42.474Z,24.2
2017-08-01T02:00:50.573Z,24.2
2017-08-01T02:01:58.669Z,24.2
2017-08-01T02:03:06.774Z,24.2
2017-08-01T02:04:14.845Z,24.2
2017-08-01T02:05:22.940Z,24.2
2017-08-01T02:06:31.029Z,24.1
2017-08-01T02:07:39.119Z,24.2
2017-08-01T02:08:47.210Z,24.2
2017-08-01T02:09:55.299Z,24.2
2017-08-01T02:11:03.387Z,24.1
2017-08-01T02:12:11.475Z,24.1
2017-08-01T02:13:19.565Z,24.2
2017-08-01T02:14:27.653Z,24.1
2017-08-01T02:15:35.742Z,24.2
2017-08-01T02:16:43.831Z,24.2
2017-08-01T02:17:51.928Z,24.2
2017-08-01T02:19:00.010Z,24.2
2017-08-01T02:20:08.100Z,24.1
2017-08-01T02:21:16.188Z,24.1
2017-08-01T02:22:24.282Z,24.1
2017-08-01T02:23:32.372Z,24.1
2017-08-01T02:24:40.464Z,24.1
2017-08-01T02:25:48.553Z,24.2
2017-08-01T02:26:56.643Z,24.1
2017-08-01T02:28:04.729Z,24.1
2017-08-01T02:29:12.820Z,24.1
2017-08-01T02:30:20.907Z,24.1
2017-08-01T02:31:28.996Z,24.1
2017-08-01T02:32:37.089Z,24.1
2017-08-01T02:33:45.174Z,24.1
2017-08-01T02:34:53.291Z,24.1
2017-08-01T02:36:01.356Z,24.1
2017-08-01T02:37:09.443Z,24.1
2017-08-01T02:38:17.533Z,24.1
2017-08-01T02:39:25.621Z,24.1
2017-08-01T02:40:33.717Z,24.1
2017-08-01T02:41:41.800Z,24.2
2017-08-01T02:42:49.888Z,24.1
2017-08-01T02:43:57.976Z,24.1
2017-08-01T02:45:06.067Z,24.1
2017-08-01T02:46:14.159Z,24.0
2017-08-01T02:47:22.244Z,24.1
2017-08-01T02:48:30.332Z,24.1
2017-08-01T02:49:38.423Z,24.1
2017-08-01T02:50:46.508Z,24.1
2017-08-01T02:51:54.609Z,24.0
2017-08-01T02:53:02.688Z,24.1
2017-08-01T02:54:10.777Z,24.1
2017-08-01T02:55:18.878Z,24.1
2017-08-01T02:56:26.955Z,24.0
2017-08-01T02:57:35.046Z,24.0
2017-08-01T02:58:43.134Z,24.1
2017-08-01T02:59:51.225Z,24.1
2017-08-01T03:00:59.310Z,23.9
2017-08-01T03:02:07.401Z,24.0
2017-08-01T03:03:15.486Z,24.0
2017-08-01T03:04:23.582Z,24.0
2017-08-01T03:05:31.664Z,24.0
2017-08-01T03:06:39.756Z,24.0
2017-08-01T03:07:47.847Z,24.0
2017-08-01T03:08:55.932Z,24.0
2017-08-01T03:10:04.020Z,24.0
2017-08-01T03:11:12.110Z,24.0
2017-08-01T03:12:20.197Z,24.0
2017-08-01T03:13:28.288Z,24.0
2017-08-01T03:14:36.381Z,24.0
2017-08-01T03:15:44.468Z,23.9
2017-08-01T03:16:52.557Z,24.0
2017-08-01T03:18:00.645Z,24.1
2017-08-01T03:19:08.733Z,24.0
2017-08-01T03:20:16.818Z,24.1
2017-08-01T03:21:24.917Z,24.1
2017-08-01T03:22:33.002Z,24.0
2017-08-01T03:23:41.088Z,24.0
2017-08-01T03:24:49.186Z,24.0
2017-08-01T03:25:57.276Z,24.0
2017-08-01T03:27:05.365Z,24.0
2017-08-01T03:28:13.452Z,24.0
2017-08-01T03:29:21.540Z,24.0
2017-08-01T03:30:29.630Z,24.0
2017-08-01T03:31:37.720Z,23.9
2017-08-01T03:32:45.808Z,24.0
2017-08-01T03:33:53.900Z,24.1
2017-08-01T03:35:01.988Z,24.0
2017-08-01T03:36:10.085Z,24.0
2017-08-01T03:37:18.191Z,23.9
2017-08-01T03:38:26.256Z,24.0
2017-08-01T03:39:34.343Z,24.0
2017-08-01T03:40:42.434Z,24.0
2017-08-01T03:41:50.525Z,23.9
2017-08-01T03:42:58.611Z,23.9
2017-08-01T03:44:06.699Z,23.9
2017-08-01T03:45:14.791Z,23.9
2017-08-01T03:46:22.887Z,23.9
2017-08-01T03:47:30.965Z,24.0
2017-08-01T03:48:39.084Z,23.9
2017-08-01T03:49:47.144Z,23.9
2017-08-01T03:50:55.233Z,23.9
2017-08-01T03:52:03.328Z,23.9
2017-08-01T03:53:11.411Z,23.9
2017-08-01T03:54:19.499Z,23.9
2017-08-01T03:55:27.591Z,23.9
2017-08-01T03:56:35.679Z,23.9
2017-08-01T03:57:43.767Z,23.9
2017-08-01T03:58:51.879Z,23.9
2017-08-01T03:59:59.953Z,23.9
2017-08-01T04:01:08.036Z,23.9
2017-08-01T04:02:16.122Z,23.9
2017-08-01T04:03:24.210Z,23.9
2017-08-01T04:04:32.299Z,23.8
2017-08-01T04:05:40.388Z,23.9
2017-08-01T04:06:48.485Z,23.9
2017-08-01T04:07:56.565Z,23.9
2017-08-01T04:09:04.654Z,24.0
2017-08-01T04:10:12.745Z,23.9
2017-08-01T04:11:20.834Z,23.9
2017-08-01T04:12:28.922Z,23.9
2017-08-01T04:13:37.013Z,23.9
2017-08-01T04:14:45.106Z,23.8
2017-08-01T04:15:53.192Z,23.9
2017-08-01T04:17:01.277Z,23.9
2017-08-01T04:18:09.373Z,23.9
2017-08-01T04:19:17.455Z,23.9
2017-08-01T04:20:25.544Z,23.8
2017-08-01T04:21:33.635Z,23.9
2017-08-01T04:22:41.723Z,23.9
2017-08-01T04:23:49.811Z,23.9
2017-08-01T04:24:57.901Z,23.8
2017-08-01T04:26:05.997Z,23.9
2017-08-01T04:27:14.078Z,23.8
2017-08-01T04:28:22.167Z,23.9
2017-08-01T04:29:30.254Z,23.9
2017-08-01T04:30:38.343Z,23.8
2017-08-01T04:31:46.432Z,23.8
2017-08-01T04:32:54.521Z,23.9
2017-08-01T04:34:02.613Z,23.9
2017-08-01T04:35:11.283Z,23.9
2017-08-01T04:36:18.806Z,23.9
2017-08-01T04:37:26.875Z,23.9
2017-08-01T04:38:34.965Z,23.9
2017-08-01T04:39:43.056Z,23.8
2017-08-01T04:40:51.141Z,23.9
2017-08-01T04:41:59.227Z,23.8
2017-08-01T04:59:00.568Z,23.8
2017-08-01T05:00:08.658Z,23.8
2017-08-01T05:01:16.746Z,23.9
2017-08-01T05:02:24.836Z,23.9
2017-08-01T05:03:32.928Z,23.9
2017-08-01T05:04:41.012Z,23.8
2017-08-01T05:05:49.102Z,23.9
2017-08-01T05:06:57.190Z,23.8
2017-08-01T05:08:05.277Z,23.8
2017-08-01T05:09:13.486Z,23.7
2017-08-01T05:10:21.470Z,23.8
2017-08-01T05:11:29.544Z,23.8
2017-08-01T05:12:38.308Z,23.8
2017-08-01T05:13:45.721Z,23.8
2017-08-01T05:14:53.810Z,23.8
2017-08-01T05:16:01.899Z,23.8
2017-08-01T05:17:09.988Z,23.8
2017-08-01T05:18:18.075Z,23.8
2017-08-01T05:19:26.172Z,23.8
2017-08-01T05:20:34.252Z,23.8
2017-08-01T05:21:42.344Z,23.8
2017-08-01T05:22:50.430Z,23.8
2017-08-01T05:23:58.518Z,23.8
2017-08-01T05:25:06.616Z,23.8
2017-08-01T05:26:14.697Z,23.8
2017-08-01T05:27:22.785Z,23.8
2017-08-01T05:28:30.873Z,23.8
2017-08-01T05:29:38.957Z,23.7
2017-08-01T05:30:47.052Z,23.9
2017-08-01T05:31:55.154Z,23.8
2017-08-01T05:33:03.227Z,23.7
2017-08-01T05:34:11.319Z,23.8
2017-08-01T05:35:19.409Z,23.7
2017-08-01T05:36:27.492Z,23.8
2017-08-01T05:37:35.582Z,23.9
2017-08-01T05:38:43.672Z,23.8
2017-08-01T05:39:51.766Z,23.8
2017-08-01T05:40:59.849Z,23.7
2017-08-01T05:42:07.937Z,23.8
2017-08-01T05:43:16.026Z,23.8
2017-08-01T05:44:24.115Z,23.8
2017-08-01T05:45:32.203Z,23.8
2017-08-01T05:46:40.292Z,23.8
2017-08-01T05:47:48.379Z,23.8
2017-08-01T05:48:56.468Z,23.7
2017-08-01T05:50:04.557Z,23.8
2017-08-01T05:51:12.647Z,23.8
2017-08-01T05:52:20.736Z,23.8
2017-08-01T05:53:28.823Z,23.9
2017-08-01T05:54:36.924Z,23.8
2017-08-01T05:55:45.016Z,23.8
2017-08-01T05:56:53.101Z,23.8
2017-08-01T05:58:01.191Z,23.7
2017-08-01T05:59:09.280Z,23.8
2017-08-01T06:00:17.369Z,23.8
2017-08-01T06:01:25.456Z,23.8
2017-08-01T06:02:33.551Z,23.8
2017-08-01T06:03:41.636Z,23.8
2017-08-01T06:04:49.723Z,23.9
2017-08-01T06:05:57.812Z,23.7
2017-08-01T06:07:05.913Z,23.8
2017-08-01T06:08:13.988Z,23.8
2017-08-01T06:09:22.077Z,23.8
2017-08-01T06:10:30.164Z,23.8
2017-08-01T06:11:38.254Z,23.8
2017-08-01T06:12:46.343Z,23.8
2017-08-01T06:13:54.432Z,23.7
2017-08-01T06:15:02.532Z,23.8
2017-08-01T06:16:10.608Z,23.8
2017-08-01T06:17:18.695Z,23.8
2017-08-01T06:18:26.784Z,23.8
2017-08-01T06:19:34.886Z,23.8
2017-08-01T06:20:42.968Z,23.8
2017-08-01T06:21:51.055Z,23.8
2017-08-01T06:22:59.143Z,23.8
2017-08-01T06:24:07.231Z,23.8
2017-08-01T06:25:15.319Z,23.8
2017-08-01T06:26:23.407Z,23.8
2017-08-01T06:27:31.497Z,23.8
2017-08-01T06:28:39.585Z,23.8
2017-08-01T06:29:47.674Z,23.8
2017-08-01T06:30:55.767Z,23.8
2017-08-01T06:32:03.852Z,23.8
2017-08-01T06:33:11.944Z,23.8
2017-08-01T06:34:20.028Z,23.7
2017-08-01T06:35:28.116Z,23.8
2017-08-01T06:36:36.211Z,23.7
2017-08-01T06:37:44.294Z,23.7
2017-08-01T06:38:52.384Z,23.7
2017-08-01T06:40:00.527Z,23.7
2017-08-01T06:41:08.560Z,23.8
2017-08-01T06:42:16.650Z,23.8
2017-08-01T06:43:24.738Z,23.7
2017-08-01T06:44:32.824Z,23.8
2017-08-01T06:45:40.915Z,23.7
2017-08-01T06:46:49.002Z,23.8
2017-08-01T06:47:57.088Z,23.7
2017-08-01T06:49:05.179Z,23.8
2017-08-01T06:50:13.268Z,23.8
2017-08-01T06:51:21.357Z,23.7
2017-08-01T06:52:29.445Z,23.7
2017-08-01T06:53:37.535Z,23.8
2017-08-01T06:54:45.620Z,23.7
2017-08-01T06:55:53.709Z,23.8
2017-08-01T06:57:01.797Z,23.8
2017-08-01T06:58:09.887Z,23.7
2017-08-01T06:59:17.983Z,23.8
2017-08-01T07:00:26.065Z,23.7
2017-08-01T07:01:34.153Z,23.8
2017-08-01T07:02:42.244Z,23.8
2017-08-01T07:03:50.328Z,23.7
2017-08-01T07:04:58.418Z,23.7
2017-08-01T07:06:06.515Z,23.8
2017-08-01T07:07:14.596Z,23.7
2017-08-01T07:08:22.685Z,23.8
2017-08-01T07:09:30.773Z,23.8
2017-08-01T07:10:38.862Z,23.8
2017-08-01T07:11:46.951Z,23.8
2017-08-01T07:12:55.044Z,23.8
2017-08-01T07:14:03.130Z,23.8
2017-08-01T07:15:11.214Z,23.7
2017-08-01T07:16:19.304Z,23.8
2017-08-01T07:17:27.400Z,23.8
2017-08-01T07:18:35.486Z,23.8
2017-08-01T07:19:43.574Z,23.7
2017-08-01T07:20:51.662Z,23.9
2017-08-01T07:21:59.749Z,23.8
2017-08-01T07:23:07.838Z,23.8
2017-08-01T07:24:15.924Z,23.7
2017-08-01T07:25:24.014Z,23.8
2017-08-01T07:26:32.106Z,23.9
2017-08-01T07:27:40.194Z,23.8
2017-08-01T07:28:48.283Z,23.8
2017-08-01T07:29:56.376Z,23.8
2017-08-01T07:31:04.460Z,23.8
2017-08-01T07:32:12.550Z,23.9
2017-08-01T07:33:20.638Z,23.8
2017-08-01T07:34:28.724Z,23.8
2017-08-01T07:35:36.813Z,23.8
2017-08-01T07:36:44.901Z,23.8
2017-08-01T07:37:52.992Z,23.8
2017-08-01T07:39:01.079Z,23.8
2017-08-01T07:40:09.170Z,23.8
2017-08-01T07:41:17.258Z,23.8
2017-08-01T07:42:25.345Z,23.8
2017-08-01T07:43:33.434Z,23.9
2017-08-01T07:44:41.521Z,23.9
2017-08-01T07:45:49.614Z,23.9
2017-08-01T07:46:57.707Z,23.9
2017-08-01T07:48:05.793Z,23.9
2017-08-01T07:49:13.882Z,23.8
2017-08-01T07:50:21.972Z,23.9
2017-08-01T07:51:30.070Z,23.9
2017-08-01T07:52:38.148Z,23.8
2017-08-01T07:53:46.236Z,23.9
2017-08-01T07:54:54.325Z,23.9
2017-08-01T07:56:02.413Z,23.8
2017-08-01T07:57:10.502Z,23.9
2017-08-01T07:58:18.606Z,23.9
2017-08-01T07:59:26.687Z,23.9
2017-08-01T08:00:34.774Z,23.9
2017-08-01T08:01:42.864Z,23.9
2017-08-01T08:02:50.954Z,23.9
2017-08-01T08:03:59.047Z,23.9
2017-08-01T08:05:07.130Z,23.9
2017-08-01T08:06:15.220Z,23.9
2017-08-01T08:07:23.313Z,24.0
2017-08-01T08:08:31.402Z,23.9
2017-08-01T08:09:39.489Z,24.0
2017-08-01T08:10:47.574Z,23.9
2017-08-01T08:11:55.664Z,23.9
2017-08-01T08:13:03.754Z,24.0
2017-08-01T08:14:11.844Z,24.0
2017-08-01T08:15:19.949Z,24.1
2017-08-01T08:16:28.037Z,24.0
2017-08-01T08:17:36.125Z,24.0
2017-08-01T08:18:44.214Z,24.1
2017-08-01T08:19:52.302Z,24.0
2017-08-01T08:21:00.391Z,24.0
2017-08-01T08:22:08.482Z,24.1
2017-08-01T08:23:16.579Z,24.1
2017-08-01T08:24:24.662Z,24.1
2017-08-01T08:25:32.752Z,24.0
2017-08-01T08:26:40.839Z,24.0
2017-08-01T08:27:48.928Z,24.0
2017-08-01T08:28:57.020Z,24.1
2017-08-01T08:30:05.107Z,24.0
2017-08-01T08:31:13.198Z,24.1
2017-08-01T08:32:21.290Z,24.0
2017-08-01T08:33:29.379Z,24.0
2017-08-01T08:34:37.470Z,24.1
2017-08-01T08:35:45.557Z,24.1
2017-08-01T08:36:53.650Z,24.0
2017-08-01T08:38:01.735Z,24.1
2017-08-01T08:39:09.825Z,24.1
2017-08-01T08:40:17.915Z,24.1
2017-08-01T08:41:26.005Z,24.0
2017-08-01T08:42:34.093Z,24.1
2017-08-01T08:43:42.184Z,24.1
2017-08-01T08:44:50.275Z,24.1
2017-08-01T08:45:58.361Z,24.1
2017-08-01T08:47:06.450Z,24.2
2017-08-01T08:48:14.541Z,24.1
2017-08-01T08:49:22.631Z,24.1
2017-08-01T08:50:30.719Z,24.2
2017-08-01T08:51:38.809Z,24.2
2017-08-01T08:52:46.899Z,24.2
2017-08-01T08:53:54.992Z,24.2
2017-08-01T08:55:03.078Z,24.2
2017-08-01T08:56:11.167Z,24.2
2017-08-01T08:57:19.256Z,24.1
2017-08-01T08:58:27.348Z,24.2
2017-08-01T08:59:35.445Z,24.2
2017-08-01T09:00:43.526Z,24.2
2017-08-01T09:01:51.616Z,24.2
2017-08-01T09:02:59.704Z,24.2
2017-08-01T09:04:07.793Z,24.3
2017-08-01T09:05:15.883Z,24.3
2017-08-01T09:06:23.982Z,24.2
2017-08-01T09:07:32.075Z,24.2
2017-08-01T09:08:40.163Z,24.2
2017-08-01T09:09:48.253Z,24.3
2017-08-01T09:10:56.344Z,24.2
2017-08-01T09:12:04.433Z,24.3
2017-08-01T09:13:12.522Z,24.3
2017-08-01T09:14:20.624Z,24.3
2017-08-01T09:15:28.712Z,24.3
2017-08-01T09:16:36.803Z,24.3
2017-08-01T09:17:44.894Z,24.4
2017-08-01T09:18:52.985Z,24.3
2017-08-01T09:20:01.074Z,24.4
2017-08-01T09:21:09.178Z,24.4
2017-08-01T09:22:17.252Z,24.4
2017-08-01T09:23:25.341Z,24.3
2017-08-01T09:24:33.432Z,24.3
2017-08-01T09:25:41.524Z,24.4
2017-08-01T09:26:49.611Z,24.4
2017-08-01T09:27:57.701Z,24.4
2017-08-01T09:29:05.789Z,24.3
2017-08-01T09:30:13.881Z,24.4
2017-08-01T09:31:21.972Z,24.4
2017-08-01T09:32:30.059Z,24.4
2017-08-01T09:33:38.148Z,24.4
2017-08-01T09:34:46.238Z,24.3
2017-08-01T09:35:54.329Z,24.4
2017-08-01T09:37:02.417Z,24.4
2017-08-01T09:38:10.514Z,24.5
2017-08-01T09:39:18.597Z,24.5
2017-08-01T09:40:26.688Z,24.5
2017-08-01T09:41:34.776Z,24.5
2017-08-01T09:42:42.864Z,24.5
2017-08-01T09:43:50.956Z,24.5
2017-08-01T09:44:59.047Z,24.5
2017-08-01T09:46:07.139Z,24.5
2017-08-01T09:47:15.225Z,24.5
2017-08-01T09:48:23.313Z,24.5
2017-08-01T09:49:31.404Z,24.6
2017-08-01T09:50:39.495Z,24.5
2017-08-01T09:51:47.579Z,24.6
2017-08-01T09:52:55.675Z,24.6
2017-08-01T09:54:03.764Z,24.6
2017-08-01T09:55:11.853Z,24.5
2017-08-01T09:56:19.941Z,24.6
2017-08-01T09:57:28.031Z,24.6
2017-08-01T09:58:36.131Z,24.6
2017-08-01T09:59:44.219Z,24.6
2017-08-01T10:00:52.310Z,24.6
2017-08-01T10:02:00.391Z,24.6
2017-08-01T10:03:08.479Z,24.6
2017-08-01T10:04:16.571Z,24.6
2017-08-01T10:05:24.667Z,24.6
2017-08-01T10:06:32.750Z,24.6
2017-08-01T10:07:40.841Z,24.6
2017-08-01T10:08:48.937Z,24.6
2017-08-01T10:09:57.020Z,24.6
2017-08-01T10:11:05.108Z,24.6
2017-08-01T10:12:13.197Z,24.6
2017-08-01T10:13:21.287Z,24.7
2017-08-01T10:14:29.377Z,24.6
2017-08-01T10:15:37.469Z,24.6
2017-08-01T10:16:45.557Z,24.6
2017-08-01T10:17:53.648Z,24.6
2017-08-01T10:19:01.738Z,24.6
2017-08-01T10:20:09.829Z,24.6
2017-08-01T10:21:17.926Z,24.6
2017-08-01T10:22:26.017Z,24.6
2017-08-01T10:23:34.107Z,24.7
2017-08-01T10:24:42.198Z,24.6
2017-08-01T10:25:50.289Z,24.8
2017-08-01T10:26:58.378Z,24.7
2017-08-01T10:28:06.470Z,24.7
2017-08-01T10:29:14.558Z,24.7
2017-08-01T10:30:22.639Z,24.6
2017-08-01T10:31:30.737Z,24.7
2017-08-01T10:32:38.872Z,24.7
2017-08-01T10:33:46.920Z,24.7
2017-08-01T10:34:55.007Z,24.7
2017-08-01T10:36:03.099Z,24.7
2017-08-01T10:37:11.188Z,24.8
2017-08-01T10:38:19.280Z,24.8
2017-08-01T10:39:27.368Z,24.7
2017-08-01T10:40:35.458Z,24.7
2017-08-01T10:41:43.555Z,24.8
2017-08-01T10:42:51.638Z,24.8
2017-08-01T10:43:59.727Z,24.8
2017-08-01T10:45:07.820Z,24.7
2017-08-01T10:46:15.909Z,24.8
2017-08-01T10:47:23.999Z,24.9
2017-08-01T10:48:32.090Z,24.8
2017-08-01T10:49:40.177Z,24.9
2017-08-01T10:50:48.267Z,24.8
2017-08-01T10:51:56.358Z,24.9
2017-08-01T10:53:04.446Z,24.9
2017-08-01T10:54:12.538Z,24.9
2017-08-01T10:55:20.629Z,24.9
2017-08-01T10:56:28.721Z,24.9
2017-08-01T10:57:36.812Z,24.8
2017-08-01T10:58:44.898Z,24.8
2017-08-01T10:59:52.992Z,24.9
2017-08-01T11:01:01.081Z,24.9
2017-08-01T11:02:09.168Z,24.9
2017-08-01T11:03:17.258Z,24.9
2017-08-01T11:04:25.349Z,24.8
2017-08-01T11:05:33.448Z,24.9
2017-08-01T11:06:41.549Z,24.9
2017-08-01T11:07:49.626Z,24.9
2017-08-01T11:08:57.730Z,24.9
2017-08-01T11:10:05.825Z,24.9
2017-08-01T11:11:13.926Z,24.9
2017-08-01T11:12:22.007Z,25.0
2017-08-01T11:13:30.105Z,25.0
2017-08-01T11:14:38.201Z,24.9
2017-08-01T11:15:46.285Z,24.9
2017-08-01T11:16:54.376Z,24.9
2017-08-01T11:18:02.468Z,24.9
2017-08-01T11:19:10.561Z,24.9
2017-08-01T11:20:18.651Z,25.0
2017-08-01T11:21:26.745Z,25.0
2017-08-01T11:22:34.832Z,25.0
2017-08-01T11:23:42.924Z,25.0
2017-08-01T11:24:51.013Z,25.0
2017-08-01T11:25:59.105Z,25.0
2017-08-01T11:27:07.194Z,25.0
2017-08-01T11:28:15.284Z,25.0
2017-08-01T11:29:23.376Z,25.0
2017-08-01T11:30:31.464Z,24.9
2017-08-01T11:31:39.609Z,24.9
2017-08-01T11:32:47.644Z,25.0
2017-08-01T11:33:55.740Z,24.9
2017-08-01T11:35:03.826Z,24.9
2017-08-01T11:36:11.917Z,25.0
2017-08-01T11:37:20.013Z,25.1
2017-08-01T11:38:28.099Z,25.0
2017-08-01T11:39:36.188Z,25.1
2017-08-01T11:40:44.278Z,25.1
2017-08-01T11:41:52.367Z,25.0
2017-08-01T11:43:00.459Z,25.0
2017-08-01T11:44:08.551Z,25.1
2017-08-01T11:45:16.638Z,25.1
2017-08-01T11:46:24.730Z,25.0
2017-08-01T11:47:32.824Z,25.1
2017-08-01T11:48:40.909Z,25.1
2017-08-01T11:49:48.998Z,25.1
2017-08-01T11:50:57.086Z,25.1
2017-08-01T11:52:05.179Z,25.1
2017-08-01T11:53:13.270Z,25.1
2017-08-01T11:54:21.359Z,25.1
2017-08-01T11:55:29.451Z,25.1
2017-08-01T11:56:37.540Z,25.1
2017-08-01T11:57:45.634Z,25.1
2017-08-01T11:58:53.721Z,25.1
2017-08-01T12:00:01.802Z,25.1
2017-08-01T12:01:09.898Z,25.1
2017-08-01T12:02:17.989Z,25.1
2017-08-01T12:03:26.081Z,25.1
2017-08-01T12:04:34.182Z,25.1
2017-08-01T12:05:42.273Z,25.2
2017-08-01T12:06:50.367Z,25.1
2017-08-01T12:07:58.455Z,25.1
2017-08-01T12:09:06.552Z,25.1
2017-08-01T12:10:14.641Z,25.2
2017-08-01T12:11:22.732Z,25.2
2017-08-01T12:12:30.824Z,25.1
2017-08-01T12:13:38.912Z,25.1
2017-08-01T12:14:47.003Z,25.1
2017-08-01T12:15:55.101Z,25.2
2017-08-01T12:17:03.184Z,25.2
2017-08-01T12:18:11.273Z,25.2
2017-08-01T12:19:19.364Z,25.2
2017-08-01T12:20:27.457Z,25.2
2017-08-01T12:21:35.547Z,25.2
2017-08-01T12:22:43.656Z,25.2
2017-08-01T12:23:51.830Z,25.2
2017-08-01T12:24:59.830Z,25.2
2017-08-01T12:26:07.920Z,25.3
2017-08-01T12:27:16.008Z,25.2
2017-08-01T12:28:24.099Z,25.3
2017-08-01T12:29:32.191Z,25.2
2017-08-01T12:30:40.286Z,25.2
2017-08-01T12:31:48.372Z,25.3
2017-08-01T12:32:56.461Z,25.3
2017-08-01T12:34:04.550Z,25.3
2017-08-01T12:35:12.713Z,25.3
2017-08-01T12:36:20.732Z,25.3
2017-08-01T12:37:28.821Z,25.2
2017-08-01T12:38:36.919Z,25.3
2017-08-01T12:39:45.005Z,25.4
2017-08-01T12:40:53.100Z,25.4
2017-08-01T12:42:01.190Z,25.4
2017-08-01T12:43:09.278Z,25.3
2017-08-01T12:44:17.370Z,25.3
2017-08-01T12:45:25.460Z,25.3
2017-08-01T12:46:33.563Z,25.4
2017-08-01T12:47:41.652Z,25.3
2017-08-01T12:48:49.744Z,25.4
2017-08-01T12:49:57.836Z,25.4
2017-08-01T12:51:05.933Z,25.4
2017-08-01T12:52:14.024Z,25.3
2017-08-01T12:53:22.113Z,25.4
2017-08-01T12:54:30.208Z,25.4
2017-08-01T12:55:38.294Z,25.4
2017-08-01T12:56:46.383Z,25.4
2017-08-01T12:57:54.472Z,25.4
2017-08-01T12:59:02.563Z,25.4
2017-08-01T13:00:10.661Z,25.4
2017-08-01T13:01:18.758Z,25.4
2017-08-01T13:02:26.836Z,25.3
2017-08-01T13:03:34.927Z,25.4
2017-08-01T13:04:43.018Z,25.4
2017-08-01T13:05:51.109Z,25.4
2017-08-01T13:06:59.212Z,25.4
2017-08-01T13:08:07.313Z,25.4
2017-08-01T13:09:15.403Z,25.4
2017-08-01T13:10:23.493Z,25.4
2017-08-01T13:11:31.584Z,25.4
2017-08-01T13:12:39.670Z,25.4
2017-08-01T13:13:47.768Z,25.4
2017-08-01T13:14:55.854Z,25.5
2017-08-01T13:16:03.952Z,25.4
2017-08-01T13:17:12.037Z,25.5
2017-08-01T13:18:20.129Z,25.4
2017-08-01T13:19:28.219Z,25.5
2017-08-01T13:20:36.308Z,25.4
2017-08-01T13:21:44.397Z,25.5
2017-08-01T13:22:52.488Z,25.5
2017-08-01T13:24:00.577Z,25.5
2017-08-01T13:25:08.669Z,25.4
2017-08-01T13:26:16.759Z,25.5
2017-08-01T13:27:24.849Z,25.5
2017-08-01T13:28:32.948Z,25.5
2017-08-01T13:29:41.033Z,25.5
2017-08-01T13:30:49.130Z,25.4
2017-08-01T13:31:57.226Z,25.5
2017-08-01T13:33:05.303Z,25.5
2017-08-01T13:34:13.398Z,25.5
2017-08-01T13:35:21.496Z,25.5
2017-08-01T13:36:29.602Z,25.5
2017-08-01T13:37:37.691Z,25.5
2017-08-01T13:38:45.782Z,25.4
2017-08-01T13:39:53.872Z,25.5
2017-08-01T13:41:01.986Z,25.5
2017-08-01T13:42:10.054Z,25.5
2017-08-01T13:43:18.144Z,25.6
2017-08-01T13:44:26.232Z,25.6
2017-08-01T13:45:34.333Z,25.6
2017-08-01T13:46:42.438Z,25.6
2017-08-01T13:47:50.524Z,25.6
2017-08-01T13:48:58.622Z,25.5
2017-08-01T13:50:06.711Z,25.6
2017-08-01T13:51:14.794Z,25.6
2017-08-01T13:52:22.889Z,25.6
2017-08-01T13:53:31.003Z,25.6
2017-08-01T13:54:39.092Z,25.6
2017-08-01T13:55:47.186Z,25.6
2017-08-01T13:56:55.320Z,25.6
2017-08-01T13:58:03.376Z,25.6
2017-08-01T13:59:11.466Z,25.6
2017-08-01T14:00:19.558Z,25.6
2017-08-01T14:01:27.648Z,25.6
2017-08-01T14:02:35.737Z,25.5
2017-08-01T14:03:43.831Z,25.6
2017-08-01T14:04:51.917Z,25.6
2017-08-01T14:06:00.010Z,25.6
2017-08-01T14:07:08.101Z,25.6
2017-08-01T14:08:16.191Z,25.7
2017-08-01T14:09:24.282Z,25.6
2017-08-01T14:10:32.372Z,25.6
2017-08-01T14:11:40.463Z,25.6
2017-08-01T14:12:48.551Z,25.6
2017-08-01T14:13:56.644Z,25.7
2017-08-01T14:15:04.734Z,25.6
2017-08-01T14:16:12.824Z,25.7
2017-08-01T14:17:20.914Z,25.6
2017-08-01T14:18:29.008Z,25.6
2017-08-01T14:19:37.095Z,25.7
2017-08-01T14:20:45.189Z,25.7
2017-08-01T14:21:53.276Z,25.7
2017-08-01T14:23:01.366Z,25.7
2017-08-01T14:24:09.456Z,25.7
2017-08-01T14:25:17.554Z,25.7
2017-08-01T14:26:25.639Z,25.7
2017-08-01T14:27:33.729Z,25.7
2017-08-01T14:28:41.818Z,25.7
2017-08-01T14:29:49.910Z,25.7
2017-08-01T14:30:58.000Z,25.7
2017-08-01T14:32:06.091Z,25.7
2017-08-01T14:33:14.182Z,25.7
2017-08-01T14:34:22.274Z,25.7
2017-08-01T14:35:30.364Z,25.7
2017-08-01T14:36:38.454Z,25.7
2017-08-01T14:37:46.623Z,25.7
2017-08-01T14:38:54.634Z,25.7
2017-08-01T14:40:02.726Z,25.7
2017-08-01T14:41:10.818Z,25.7
2017-08-01T14:42:18.907Z,25.8
2017-08-01T14:43:26.996Z,25.7
2017-08-01T14:44:35.102Z,25.7
2017-08-01T14:45:43.183Z,25.8
2017-08-01T14:46:51.278Z,25.8
2017-08-01T14:47:59.361Z,25.8
2017-08-01T14:49:07.455Z,25.8
2017-08-01T14:50:15.545Z,25.7
2017-08-01T14:51:23.642Z,25.8
2017-08-01T14:52:31.727Z,25.8
2017-08-01T14:53:39.817Z,25.7
2017-08-01T14:54:47.909Z,25.7
2017-08-01T14:55:55.999Z,25.9
2017-08-01T14:57:04.091Z,25.8
2017-08-01T14:58:12.180Z,25.7
2017-08-01T14:59:20.271Z,25.8
2017-08-01T15:00:28.362Z,25.9
2017-08-01T15:01:36.451Z,25.9
2017-08-01T15:02:44.541Z,25.7
2017-08-01T15:03:52.648Z,25.7
2017-08-01T15:05:00.793Z,25.8
2017-08-01T15:06:08.829Z,25.8
2017-08-01T15:07:16.922Z,25.8
2017-08-01T15:08:25.009Z,25.8
2017-08-01T15:09:33.099Z,25.8
2017-08-01T15:10:41.189Z,25.8
2017-08-01T15:11:49.279Z,25.8
2017-08-01T15:12:57.371Z,25.9
2017-08-01T15:14:05.463Z,25.9
2017-08-01T15:15:13.551Z,25.8
2017-08-01T15:16:21.643Z,25.9
2017-08-01T15:17:29.733Z,25.9
2017-08-01T15:18:37.838Z,25.8
2017-08-01T15:19:45.927Z,25.9
2017-08-01T15:20:54.020Z,25.9
2017-08-01T15:22:02.110Z,25.8